sensor_id;sensor_type;location;lat;lon;timestamp;temperature;humidity
69006;SHT31;56061;51.748;19.620;2023-08-21T00:01:38;20.86;77.31
69006;SHT31;56061;51.748;19.620;2023-08-21T00:04:05;20.86;77.53
69006;SHT31;56061;51.748;19.620;2023-08-21T00:06:32;20.85;77.43
69006;SHT31;56061;51.748;19.620;2023-08-21T00:08:59;20.84;77.31
69006;SHT31;56061;51.748;19.620;2023-08-21T00:11:27;20.85;77.45
69006;SHT31;56061;51.748;19.620;2023-08-21T00:13:54;20.89;77.89
69006;SHT31;56061;51.748;19.620;2023-08-21T00:16:20;20.92;78.09
69006;SHT31;56061;51.748;19.620;2023-08-21T00:18:47;20.95;78.10
69006;SHT31;56061;51.748;19.620;2023-08-21T00:21:13;20.97;78.11
69006;SHT31;56061;51.748;19.620;2023-08-21T00:23:39;20.97;77.94
69006;SHT31;56061;51.748;19.620;2023-08-21T00:26:06;20.95;78.01
69006;SHT31;56061;51.748;19.620;2023-08-21T00:28:32;20.89;78.36
69006;SHT31;56061;51.748;19.620;2023-08-21T00:31:04;20.84;78.58
69006;SHT31;56061;51.748;19.620;2023-08-21T00:33:32;20.79;78.73
69006;SHT31;56061;51.748;19.620;2023-08-21T00:35:59;20.77;78.65
69006;SHT31;56061;51.748;19.620;2023-08-21T00:38:26;20.73;78.59
69006;SHT31;56061;51.748;19.620;2023-08-21T00:40:52;20.72;78.72
69006;SHT31;56061;51.748;19.620;2023-08-21T00:43:20;20.74;78.78
69006;SHT31;56061;51.748;19.620;2023-08-21T00:45:47;20.78;78.75
69006;SHT31;56061;51.748;19.620;2023-08-21T00:48:16;20.79;78.74
69006;SHT31;56061;51.748;19.620;2023-08-21T00:50:42;20.83;78.88
69006;SHT31;56061;51.748;19.620;2023-08-21T00:53:10;20.87;79.05
69006;SHT31;56061;51.748;19.620;2023-08-21T00:55:37;20.89;79.22
69006;SHT31;56061;51.748;19.620;2023-08-21T00:58:05;20.93;79.25
69006;SHT31;56061;51.748;19.620;2023-08-21T01:00:32;20.97;79.18
69006;SHT31;56061;51.748;19.620;2023-08-21T01:03:01;20.99;79.17
69006;SHT31;56061;51.748;19.620;2023-08-21T01:05:28;21.02;79.08
69006;SHT31;56061;51.748;19.620;2023-08-21T01:08:02;21.05;78.89
69006;SHT31;56061;51.748;19.620;2023-08-21T01:10:36;21.07;78.64
69006;SHT31;56061;51.748;19.620;2023-08-21T01:15:45;21.06;78.56
69006;SHT31;56061;51.748;19.620;2023-08-21T01:18:13;20.99;78.52
69006;SHT31;56061;51.748;19.620;2023-08-21T01:20:41;20.89;78.53
69006;SHT31;56061;51.748;19.620;2023-08-21T01:23:08;20.83;78.54
69006;SHT31;56061;51.748;19.620;2023-08-21T01:25:35;20.79;78.49
69006;SHT31;56061;51.748;19.620;2023-08-21T01:28:01;20.75;78.50
69006;SHT31;56061;51.748;19.620;2023-08-21T01:30:28;20.73;78.63
69006;SHT31;56061;51.748;19.620;2023-08-21T01:33:05;20.70;78.73
69006;SHT31;56061;51.748;19.620;2023-08-21T01:35:37;20.63;78.69
69006;SHT31;56061;51.748;19.620;2023-08-21T01:38:04;20.53;78.50
69006;SHT31;56061;51.748;19.620;2023-08-21T01:40:31;20.45;78.64
69006;SHT31;56061;51.748;19.620;2023-08-21T01:42:58;20.38;78.85
69006;SHT31;56061;51.748;19.620;2023-08-21T01:45:24;20.31;79.12
69006;SHT31;56061;51.748;19.620;2023-08-21T01:47:51;20.22;79.11
69006;SHT31;56061;51.748;19.620;2023-08-21T01:50:18;20.14;79.12
69006;SHT31;56061;51.748;19.620;2023-08-21T01:52:44;20.10;79.11
69006;SHT31;56061;51.748;19.620;2023-08-21T01:55:11;20.10;79.54
69006;SHT31;56061;51.748;19.620;2023-08-21T01:57:38;20.11;79.69
69006;SHT31;56061;51.748;19.620;2023-08-21T02:00:04;20.08;79.70
69006;SHT31;56061;51.748;19.620;2023-08-21T02:02:33;20.03;79.57
69006;SHT31;56061;51.748;19.620;2023-08-21T02:04:59;20.01;79.60
69006;SHT31;56061;51.748;19.620;2023-08-21T02:07:26;19.99;79.58
69006;SHT31;56061;51.748;19.620;2023-08-21T02:09:52;19.96;79.62
69006;SHT31;56061;51.748;19.620;2023-08-21T02:12:19;19.90;79.66
69006;SHT31;56061;51.748;19.620;2023-08-21T02:14:45;19.90;79.92
69006;SHT31;56061;51.748;19.620;2023-08-21T02:17:12;19.92;79.86
69006;SHT31;56061;51.748;19.620;2023-08-21T02:19:38;19.91;79.70
69006;SHT31;56061;51.748;19.620;2023-08-21T02:22:04;19.88;79.82
69006;SHT31;56061;51.748;19.620;2023-08-21T02:24:31;19.91;79.97
69006;SHT31;56061;51.748;19.620;2023-08-21T02:26:57;19.88;79.86
69006;SHT31;56061;51.748;19.620;2023-08-21T02:29:24;19.84;80.25
69006;SHT31;56061;51.748;19.620;2023-08-21T02:31:50;19.84;80.29
69006;SHT31;56061;51.748;19.620;2023-08-21T02:34:17;19.84;80.27
69006;SHT31;56061;51.748;19.620;2023-08-21T02:36:43;19.81;80.37
69006;SHT31;56061;51.748;19.620;2023-08-21T02:39:09;19.78;80.44
69006;SHT31;56061;51.748;19.620;2023-08-21T02:41:36;19.73;80.31
69006;SHT31;56061;51.748;19.620;2023-08-21T02:44:02;19.69;80.26
69006;SHT31;56061;51.748;19.620;2023-08-21T02:46:29;19.65;80.39
69006;SHT31;56061;51.748;19.620;2023-08-21T02:48:55;19.65;80.52
69006;SHT31;56061;51.748;19.620;2023-08-21T02:51:22;19.65;80.23
69006;SHT31;56061;51.748;19.620;2023-08-21T02:53:48;19.64;80.31
69006;SHT31;56061;51.748;19.620;2023-08-21T02:56:15;19.64;80.34
69006;SHT31;56061;51.748;19.620;2023-08-21T02:58:41;19.67;80.32
69006;SHT31;56061;51.748;19.620;2023-08-21T03:01:08;19.69;80.38
69006;SHT31;56061;51.748;19.620;2023-08-21T03:03:34;19.70;80.36
69006;SHT31;56061;51.748;19.620;2023-08-21T03:06:02;19.66;80.46
69006;SHT31;56061;51.748;19.620;2023-08-21T03:08:28;19.62;80.57
69006;SHT31;56061;51.748;19.620;2023-08-21T03:10:55;19.54;80.57
69006;SHT31;56061;51.748;19.620;2023-08-21T03:13:21;19.45;80.50
69006;SHT31;56061;51.748;19.620;2023-08-21T03:15:48;19.36;80.51
69006;SHT31;56061;51.748;19.620;2023-08-21T03:18:14;19.31;80.63
69006;SHT31;56061;51.748;19.620;2023-08-21T03:20:45;19.27;80.82
69006;SHT31;56061;51.748;19.620;2023-08-21T03:23:12;19.25;80.87
69006;SHT31;56061;51.748;19.620;2023-08-21T03:25:39;19.25;81.03
69006;SHT31;56061;51.748;19.620;2023-08-21T03:28:06;19.29;80.99
69006;SHT31;56061;51.748;19.620;2023-08-21T03:30:32;19.32;80.94
69006;SHT31;56061;51.748;19.620;2023-08-21T03:32:59;19.35;81.01
69006;SHT31;56061;51.748;19.620;2023-08-21T03:35:25;19.39;81.28
69006;SHT31;56061;51.748;19.620;2023-08-21T03:37:52;19.44;81.50
69006;SHT31;56061;51.748;19.620;2023-08-21T03:40:18;19.48;81.69
69006;SHT31;56061;51.748;19.620;2023-08-21T03:42:45;19.53;81.82
69006;SHT31;56061;51.748;19.620;2023-08-21T03:45:11;19.55;81.87
69006;SHT31;56061;51.748;19.620;2023-08-21T03:47:37;19.59;81.93
69006;SHT31;56061;51.748;19.620;2023-08-21T03:50:04;19.64;82.02
69006;SHT31;56061;51.748;19.620;2023-08-21T03:52:31;19.67;82.16
69006;SHT31;56061;51.748;19.620;2023-08-21T03:54:58;19.71;82.11
69006;SHT31;56061;51.748;19.620;2023-08-21T03:57:24;19.78;82.08
69006;SHT31;56061;51.748;19.620;2023-08-21T03:59:50;19.84;82.14
69006;SHT31;56061;51.748;19.620;2023-08-21T04:02:17;19.88;82.22
69006;SHT31;56061;51.748;19.620;2023-08-21T04:04:43;19.94;82.49
69006;SHT31;56061;51.748;19.620;2023-08-21T04:07:10;20.01;82.58
69006;SHT31;56061;51.748;19.620;2023-08-21T04:09:36;20.04;82.42
69006;SHT31;56061;51.748;19.620;2023-08-21T04:12:03;20.06;82.26
69006;SHT31;56061;51.748;19.620;2023-08-21T04:14:29;20.11;82.30
69006;SHT31;56061;51.748;19.620;2023-08-21T04:16:56;20.17;82.42
69006;SHT31;56061;51.748;19.620;2023-08-21T04:19:22;20.20;82.67
69006;SHT31;56061;51.748;19.620;2023-08-21T04:21:49;20.26;82.93
69006;SHT31;56061;51.748;19.620;2023-08-21T04:24:15;20.33;83.08
69006;SHT31;56061;51.748;19.620;2023-08-21T04:26:41;20.43;83.20
69006;SHT31;56061;51.748;19.620;2023-08-21T04:29:08;20.52;83.17
69006;SHT31;56061;51.748;19.620;2023-08-21T04:31:34;20.63;83.18
69006;SHT31;56061;51.748;19.620;2023-08-21T04:34:01;20.74;83.20
69006;SHT31;56061;51.748;19.620;2023-08-21T04:36:28;20.88;83.07
69006;SHT31;56061;51.748;19.620;2023-08-21T04:38:54;20.99;82.94
69006;SHT31;56061;51.748;19.620;2023-08-21T04:41:20;21.08;83.03
69006;SHT31;56061;51.748;19.620;2023-08-21T04:43:47;21.18;83.04
69006;SHT31;56061;51.748;19.620;2023-08-21T04:46:13;21.28;83.00
69006;SHT31;56061;51.748;19.620;2023-08-21T04:48:40;21.38;82.83
69006;SHT31;56061;51.748;19.620;2023-08-21T04:51:07;21.46;82.73
69006;SHT31;56061;51.748;19.620;2023-08-21T04:53:33;21.53;82.59
69006;SHT31;56061;51.748;19.620;2023-08-21T04:55:59;21.59;82.47
69006;SHT31;56061;51.748;19.620;2023-08-21T04:58:26;21.67;82.34
69006;SHT31;56061;51.748;19.620;2023-08-21T05:00:52;21.76;82.23
69006;SHT31;56061;51.748;19.620;2023-08-21T05:03:19;21.82;82.11
69006;SHT31;56061;51.748;19.620;2023-08-21T05:05:52;21.87;82.06
69006;SHT31;56061;51.748;19.620;2023-08-21T05:08:24;21.89;82.09
69006;SHT31;56061;51.748;19.620;2023-08-21T05:10:55;21.91;82.05
69006;SHT31;56061;51.748;19.620;2023-08-21T05:13:23;21.92;82.04
69006;SHT31;56061;51.748;19.620;2023-08-21T05:15:55;21.92;81.97
69006;SHT31;56061;51.748;19.620;2023-08-21T05:18:23;21.90;82.05
69006;SHT31;56061;51.748;19.620;2023-08-21T05:20:53;21.90;82.08
69006;SHT31;56061;51.748;19.620;2023-08-21T05:23:21;21.87;82.11
69006;SHT31;56061;51.748;19.620;2023-08-21T05:25:49;21.83;82.26
69006;SHT31;56061;51.748;19.620;2023-08-21T05:28:16;21.75;82.63
69006;SHT31;56061;51.748;19.620;2023-08-21T05:30:42;21.64;83.22
69006;SHT31;56061;51.748;19.620;2023-08-21T05:33:09;21.47;83.76
69006;SHT31;56061;51.748;19.620;2023-08-21T05:35:36;21.28;84.22
69006;SHT31;56061;51.748;19.620;2023-08-21T05:38:03;21.09;84.52
69006;SHT31;56061;51.748;19.620;2023-08-21T05:40:30;20.93;84.59
69006;SHT31;56061;51.748;19.620;2023-08-21T05:42:57;20.79;84.81
69006;SHT31;56061;51.748;19.620;2023-08-21T05:45:24;20.68;85.14
69006;SHT31;56061;51.748;19.620;2023-08-21T05:47:50;20.56;85.37
69006;SHT31;56061;51.748;19.620;2023-08-21T05:50:17;20.43;85.64
69006;SHT31;56061;51.748;19.620;2023-08-21T05:52:43;20.30;85.68
69006;SHT31;56061;51.748;19.620;2023-08-21T05:55:10;20.15;85.50
69006;SHT31;56061;51.748;19.620;2023-08-21T05:57:37;20.04;85.61
69006;SHT31;56061;51.748;19.620;2023-08-21T06:00:03;19.94;85.75
69006;SHT31;56061;51.748;19.620;2023-08-21T06:02:34;19.86;85.88
69006;SHT31;56061;51.748;19.620;2023-08-21T06:05:01;19.78;85.96
69006;SHT31;56061;51.748;19.620;2023-08-21T06:07:29;19.71;86.00
69006;SHT31;56061;51.748;19.620;2023-08-21T06:09:56;19.64;86.02
69006;SHT31;56061;51.748;19.620;2023-08-21T06:12:22;19.61;86.13
69006;SHT31;56061;51.748;19.620;2023-08-21T06:14:48;19.58;86.29
69006;SHT31;56061;51.748;19.620;2023-08-21T06:17:15;19.56;86.46
69006;SHT31;56061;51.748;19.620;2023-08-21T06:19:42;19.55;86.59
69006;SHT31;56061;51.748;19.620;2023-08-21T06:22:08;19.53;86.72
69006;SHT31;56061;51.748;19.620;2023-08-21T06:24:35;19.53;86.85
69006;SHT31;56061;51.748;19.620;2023-08-21T06:27:01;19.54;86.92
69006;SHT31;56061;51.748;19.620;2023-08-21T06:29:31;19.56;86.98
69006;SHT31;56061;51.748;19.620;2023-08-21T06:31:57;19.56;86.97
69006;SHT31;56061;51.748;19.620;2023-08-21T06:34:24;19.58;87.04
69006;SHT31;56061;51.748;19.620;2023-08-21T06:36:50;19.62;87.08
69006;SHT31;56061;51.748;19.620;2023-08-21T06:39:17;19.66;87.05
69006;SHT31;56061;51.748;19.620;2023-08-21T06:41:43;19.72;87.07
69006;SHT31;56061;51.748;19.620;2023-08-21T06:44:10;19.79;87.05
69006;SHT31;56061;51.748;19.620;2023-08-21T06:46:36;19.85;87.03
69006;SHT31;56061;51.748;19.620;2023-08-21T06:49:03;19.93;87.05
69006;SHT31;56061;51.748;19.620;2023-08-21T06:51:29;20.01;87.08
69006;SHT31;56061;51.748;19.620;2023-08-21T06:53:56;20.10;87.07
69006;SHT31;56061;51.748;19.620;2023-08-21T06:56:22;20.18;86.98
69006;SHT31;56061;51.748;19.620;2023-08-21T06:58:49;20.23;86.90
69006;SHT31;56061;51.748;19.620;2023-08-21T07:01:16;20.29;86.94
69006;SHT31;56061;51.748;19.620;2023-08-21T07:03:43;20.35;86.87
69006;SHT31;56061;51.748;19.620;2023-08-21T07:06:09;20.42;86.96
69006;SHT31;56061;51.748;19.620;2023-08-21T07:08:36;20.47;86.97
69006;SHT31;56061;51.748;19.620;2023-08-21T07:11:03;20.51;86.92
69006;SHT31;56061;51.748;19.620;2023-08-21T07:13:30;20.56;86.85
69006;SHT31;56061;51.748;19.620;2023-08-21T07:15:57;20.63;86.97
69006;SHT31;56061;51.748;19.620;2023-08-21T07:18:23;20.67;86.87
69006;SHT31;56061;51.748;19.620;2023-08-21T07:20:53;20.70;86.91
69006;SHT31;56061;51.748;19.620;2023-08-21T07:23:19;20.76;86.98
69006;SHT31;56061;51.748;19.620;2023-08-21T07:25:46;20.81;86.95
69006;SHT31;56061;51.748;19.620;2023-08-21T07:28:12;20.86;86.87
69006;SHT31;56061;51.748;19.620;2023-08-21T07:30:39;20.91;86.94
69006;SHT31;56061;51.748;19.620;2023-08-21T07:33:06;20.97;86.88
69006;SHT31;56061;51.748;19.620;2023-08-21T07:35:32;21.03;86.83
69006;SHT31;56061;51.748;19.620;2023-08-21T07:37:59;21.08;86.42
69006;SHT31;56061;51.748;19.620;2023-08-21T07:40:25;21.11;86.02
69006;SHT31;56061;51.748;19.620;2023-08-21T07:42:52;21.12;85.60
69006;SHT31;56061;51.748;19.620;2023-08-21T07:45:18;21.13;84.57
69006;SHT31;56061;51.748;19.620;2023-08-21T07:47:44;21.12;84.13
69006;SHT31;56061;51.748;19.620;2023-08-21T07:50:10;21.13;83.62
69006;SHT31;56061;51.748;19.620;2023-08-21T07:52:37;21.16;83.60
69006;SHT31;56061;51.748;19.620;2023-08-21T07:55:04;21.18;83.29
69006;SHT31;56061;51.748;19.620;2023-08-21T07:57:31;21.19;83.46
69006;SHT31;56061;51.748;19.620;2023-08-21T07:59:57;21.20;83.71
69006;SHT31;56061;51.748;19.620;2023-08-21T08:02:24;21.22;83.76
69006;SHT31;56061;51.748;19.620;2023-08-21T08:04:51;21.23;83.67
69006;SHT31;56061;51.748;19.620;2023-08-21T08:07:18;21.25;83.18
69006;SHT31;56061;51.748;19.620;2023-08-21T08:09:44;21.32;82.75
69006;SHT31;56061;51.748;19.620;2023-08-21T08:12:10;21.37;82.16
69006;SHT31;56061;51.748;19.620;2023-08-21T08:14:37;21.41;81.66
69006;SHT31;56061;51.748;19.620;2023-08-21T08:17:04;21.45;81.06
69006;SHT31;56061;51.748;19.620;2023-08-21T08:19:31;21.47;80.95
69006;SHT31;56061;51.748;19.620;2023-08-21T08:22:04;21.51;79.93
69006;SHT31;56061;51.748;19.620;2023-08-21T08:24:31;21.55;79.23
69006;SHT31;56061;51.748;19.620;2023-08-21T08:26:58;21.58;78.70
69006;SHT31;56061;51.748;19.620;2023-08-21T08:29:24;21.62;78.32
69006;SHT31;56061;51.748;19.620;2023-08-21T08:31:51;21.67;78.12
69006;SHT31;56061;51.748;19.620;2023-08-21T08:34:17;21.73;77.91
69006;SHT31;56061;51.748;19.620;2023-08-21T08:36:44;21.75;77.41
69006;SHT31;56061;51.748;19.620;2023-08-21T08:39:10;21.79;77.10
69006;SHT31;56061;51.748;19.620;2023-08-21T08:41:43;21.88;76.41
69006;SHT31;56061;51.748;19.620;2023-08-21T08:47:13;22.13;74.59
69006;SHT31;56061;51.748;19.620;2023-08-21T08:49:43;22.21;74.73
69006;SHT31;56061;51.748;19.620;2023-08-21T08:52:09;22.28;74.14
69006;SHT31;56061;51.748;19.620;2023-08-21T08:54:44;22.34;73.88
69006;SHT31;56061;51.748;19.620;2023-08-21T08:57:10;22.43;73.87
69006;SHT31;56061;51.748;19.620;2023-08-21T08:59:37;22.54;71.81
69006;SHT31;56061;51.748;19.620;2023-08-21T09:02:03;22.63;71.41
69006;SHT31;56061;51.748;19.620;2023-08-21T09:04:30;22.70;71.50
69006;SHT31;56061;51.748;19.620;2023-08-21T09:07:06;22.78;70.69
69006;SHT31;56061;51.748;19.620;2023-08-21T09:09:38;22.85;70.15
69006;SHT31;56061;51.748;19.620;2023-08-21T09:12:12;22.93;70.16
69006;SHT31;56061;51.748;19.620;2023-08-21T09:14:40;23.01;69.61
69006;SHT31;56061;51.748;19.620;2023-08-21T09:17:08;23.08;68.43
69006;SHT31;56061;51.748;19.620;2023-08-21T09:19:35;23.17;68.46
69006;SHT31;56061;51.748;19.620;2023-08-21T09:22:12;23.24;68.20
69006;SHT31;56061;51.748;19.620;2023-08-21T09:24:59;23.32;67.66
69006;SHT31;56061;51.748;19.620;2023-08-21T09:27:34;23.41;67.54
69006;SHT31;56061;51.748;19.620;2023-08-21T09:30:08;23.49;65.84
69006;SHT31;56061;51.748;19.620;2023-08-21T09:32:54;23.57;65.56
69006;SHT31;56061;51.748;19.620;2023-08-21T09:35:26;23.63;64.22
69006;SHT31;56061;51.748;19.620;2023-08-21T09:37:53;23.67;63.31
69006;SHT31;56061;51.748;19.620;2023-08-21T09:40:20;23.68;62.86
69006;SHT31;56061;51.748;19.620;2023-08-21T09:42:51;23.71;62.67
69006;SHT31;56061;51.748;19.620;2023-08-21T09:45:26;23.76;62.17
69006;SHT31;56061;51.748;19.620;2023-08-21T09:50:55;23.88;61.85
69006;SHT31;56061;51.748;19.620;2023-08-21T09:53:22;23.95;62.73
69006;SHT31;56061;51.748;19.620;2023-08-21T09:55:53;24.02;62.36
69006;SHT31;56061;51.748;19.620;2023-08-21T09:58:21;24.10;61.31
69006;SHT31;56061;51.748;19.620;2023-08-21T10:00:49;24.18;61.72
69006;SHT31;56061;51.748;19.620;2023-08-21T10:03:18;24.26;60.61
69006;SHT31;56061;51.748;19.620;2023-08-21T10:05:47;24.33;60.45
69006;SHT31;56061;51.748;19.620;2023-08-21T10:08:18;24.39;59.59
69006;SHT31;56061;51.748;19.620;2023-08-21T10:10:45;24.45;58.93
69006;SHT31;56061;51.748;19.620;2023-08-21T10:13:12;24.54;57.69
69006;SHT31;56061;51.748;19.620;2023-08-21T10:15:39;24.62;57.43
69006;SHT31;56061;51.748;19.620;2023-08-21T10:20:47;24.79;57.23
69006;SHT31;56061;51.748;19.620;2023-08-21T10:25:46;25.00;57.81
69006;SHT31;56061;51.748;19.620;2023-08-21T10:28:13;25.09;57.64
69006;SHT31;56061;51.748;19.620;2023-08-21T10:30:39;25.16;57.21
69006;SHT31;56061;51.748;19.620;2023-08-21T10:33:06;25.23;54.74
69006;SHT31;56061;51.748;19.620;2023-08-21T10:35:33;25.30;55.05
69006;SHT31;56061;51.748;19.620;2023-08-21T10:38:10;25.39;56.00
69006;SHT31;56061;51.748;19.620;2023-08-21T10:43:38;25.55;55.83
69006;SHT31;56061;51.748;19.620;2023-08-21T10:46:07;25.62;55.07
69006;SHT31;56061;51.748;19.620;2023-08-21T10:48:35;25.66;54.74
69006;SHT31;56061;51.748;19.620;2023-08-21T10:51:03;25.70;54.81
69006;SHT31;56061;51.748;19.620;2023-08-21T10:53:33;25.74;54.13
69006;SHT31;56061;51.748;19.620;2023-08-21T10:56:03;25.83;54.54
69006;SHT31;56061;51.748;19.620;2023-08-21T10:58:34;25.90;52.90
69006;SHT31;56061;51.748;19.620;2023-08-21T11:01:04;25.89;52.84
69006;SHT31;56061;51.748;19.620;2023-08-21T11:03:31;25.89;53.10
69006;SHT31;56061;51.748;19.620;2023-08-21T11:06:04;25.92;53.95
69006;SHT31;56061;51.748;19.620;2023-08-21T11:08:35;25.98;54.04
69006;SHT31;56061;51.748;19.620;2023-08-21T11:11:03;26.05;53.17
69006;SHT31;56061;51.748;19.620;2023-08-21T11:13:36;26.10;52.75
69006;SHT31;56061;51.748;19.620;2023-08-21T11:16:03;26.16;52.71
69006;SHT31;56061;51.748;19.620;2023-08-21T11:18:35;26.18;52.53
69006;SHT31;56061;51.748;19.620;2023-08-21T11:21:10;26.25;52.40
69006;SHT31;56061;51.748;19.620;2023-08-21T11:23:39;26.30;51.71
69006;SHT31;56061;51.748;19.620;2023-08-21T11:26:12;26.39;50.54
69006;SHT31;56061;51.748;19.620;2023-08-21T11:28:41;26.46;49.37
69006;SHT31;56061;51.748;19.620;2023-08-21T11:31:08;26.51;49.86
69006;SHT31;56061;51.748;19.620;2023-08-21T11:33:36;26.58;49.30
69006;SHT31;56061;51.748;19.620;2023-08-21T11:36:04;26.60;49.96
69006;SHT31;56061;51.748;19.620;2023-08-21T11:38:31;26.67;49.82
69006;SHT31;56061;51.748;19.620;2023-08-21T11:40:58;26.74;49.40
69006;SHT31;56061;51.748;19.620;2023-08-21T11:43:37;26.81;49.72
69006;SHT31;56061;51.748;19.620;2023-08-21T11:46:06;26.86;49.38
69006;SHT31;56061;51.748;19.620;2023-08-21T11:48:36;26.92;49.72
69006;SHT31;56061;51.748;19.620;2023-08-21T11:51:04;26.94;49.57
69006;SHT31;56061;51.748;19.620;2023-08-21T11:53:39;27.03;49.58
69006;SHT31;56061;51.748;19.620;2023-08-21T11:56:14;27.13;49.24
69006;SHT31;56061;51.748;19.620;2023-08-21T11:58:43;27.18;48.64
69006;SHT31;56061;51.748;19.620;2023-08-21T12:01:18;27.25;48.04
69006;SHT31;56061;51.748;19.620;2023-08-21T12:03:47;27.34;47.16
69006;SHT31;56061;51.748;19.620;2023-08-21T12:06:22;27.44;47.51
69006;SHT31;56061;51.748;19.620;2023-08-21T12:08:51;27.55;47.58
69006;SHT31;56061;51.748;19.620;2023-08-21T12:11:18;27.66;46.93
69006;SHT31;56061;51.748;19.620;2023-08-21T12:13:44;27.72;45.95
69006;SHT31;56061;51.748;19.620;2023-08-21T12:16:11;27.73;45.79
69006;SHT31;56061;51.748;19.620;2023-08-21T12:18:37;27.71;44.83
69006;SHT31;56061;51.748;19.620;2023-08-21T12:21:04;27.71;45.71
69006;SHT31;56061;51.748;19.620;2023-08-21T12:23:30;27.73;45.94
69006;SHT31;56061;51.748;19.620;2023-08-21T12:25:57;27.75;45.32
69006;SHT31;56061;51.748;19.620;2023-08-21T12:28:23;27.77;45.54
69006;SHT31;56061;51.748;19.620;2023-08-21T12:30:50;27.83;45.74
69006;SHT31;56061;51.748;19.620;2023-08-21T12:33:16;27.89;45.65
69006;SHT31;56061;51.748;19.620;2023-08-21T12:35:44;27.95;44.96
69006;SHT31;56061;51.748;19.620;2023-08-21T12:38:11;27.98;44.70
69006;SHT31;56061;51.748;19.620;2023-08-21T12:40:39;28.01;44.96
69006;SHT31;56061;51.748;19.620;2023-08-21T12:43:06;28.03;44.82
69006;SHT31;56061;51.748;19.620;2023-08-21T12:45:40;28.05;44.54
69006;SHT31;56061;51.748;19.620;2023-08-21T12:48:07;28.10;44.67
69006;SHT31;56061;51.748;19.620;2023-08-21T12:50:34;28.18;45.24
69006;SHT31;56061;51.748;19.620;2023-08-21T12:53:01;28.25;44.72
69006;SHT31;56061;51.748;19.620;2023-08-21T12:55:33;28.31;45.16
69006;SHT31;56061;51.748;19.620;2023-08-21T12:58:03;28.42;45.38
69006;SHT31;56061;51.748;19.620;2023-08-21T13:00:31;28.54;44.89
69006;SHT31;56061;51.748;19.620;2023-08-21T13:02:58;28.62;45.09
69006;SHT31;56061;51.748;19.620;2023-08-21T13:05:26;28.60;44.65
69006;SHT31;56061;51.748;19.620;2023-08-21T13:07:52;28.53;44.13
69006;SHT31;56061;51.748;19.620;2023-08-21T13:10:25;28.39;44.36
69006;SHT31;56061;51.748;19.620;2023-08-21T13:12:51;28.22;44.56
69006;SHT31;56061;51.748;19.620;2023-08-21T13:15:18;28.10;44.38
69006;SHT31;56061;51.748;19.620;2023-08-21T13:17:45;28.03;44.13
69006;SHT31;56061;51.748;19.620;2023-08-21T13:20:11;28.00;44.52
69006;SHT31;56061;51.748;19.620;2023-08-21T13:22:45;28.02;44.68
69006;SHT31;56061;51.748;19.620;2023-08-21T13:25:12;27.99;44.56
69006;SHT31;56061;51.748;19.620;2023-08-21T13:27:39;28.06;44.82
69006;SHT31;56061;51.748;19.620;2023-08-21T13:30:06;28.16;45.23
69006;SHT31;56061;51.748;19.620;2023-08-21T13:32:34;28.32;45.75
69006;SHT31;56061;51.748;19.620;2023-08-21T13:35:01;28.43;45.20
69006;SHT31;56061;51.748;19.620;2023-08-21T13:37:27;28.52;45.29
69006;SHT31;56061;51.748;19.620;2023-08-21T13:39:54;28.61;44.95
69006;SHT31;56061;51.748;19.620;2023-08-21T13:42:21;28.67;44.29
69006;SHT31;56061;51.748;19.620;2023-08-21T13:44:47;28.73;44.59
69006;SHT31;56061;51.748;19.620;2023-08-21T13:47:14;28.77;44.80
69006;SHT31;56061;51.748;19.620;2023-08-21T13:49:40;28.82;44.35
69006;SHT31;56061;51.748;19.620;2023-08-21T13:52:07;28.84;44.28
69006;SHT31;56061;51.748;19.620;2023-08-21T13:54:34;28.91;44.58
69006;SHT31;56061;51.748;19.620;2023-08-21T13:57:00;28.95;43.54
69006;SHT31;56061;51.748;19.620;2023-08-21T13:59:28;28.97;44.24
69006;SHT31;56061;51.748;19.620;2023-08-21T14:01:54;29.01;43.58
69006;SHT31;56061;51.748;19.620;2023-08-21T14:04:21;29.01;43.60
69006;SHT31;56061;51.748;19.620;2023-08-21T14:06:48;29.04;43.46
69006;SHT31;56061;51.748;19.620;2023-08-21T14:09:14;29.08;42.79
69006;SHT31;56061;51.748;19.620;2023-08-21T14:11:40;29.11;43.08
69006;SHT31;56061;51.748;19.620;2023-08-21T14:14:09;29.12;42.53
69006;SHT31;56061;51.748;19.620;2023-08-21T14:16:36;29.10;42.72
69006;SHT31;56061;51.748;19.620;2023-08-21T14:19:11;29.10;42.97
69006;SHT31;56061;51.748;19.620;2023-08-21T14:21:37;29.13;43.18
69006;SHT31;56061;51.748;19.620;2023-08-21T14:24:04;29.18;43.42
69006;SHT31;56061;51.748;19.620;2023-08-21T14:26:30;29.21;43.23
69006;SHT31;56061;51.748;19.620;2023-08-21T14:28:57;29.22;43.09
69006;SHT31;56061;51.748;19.620;2023-08-21T14:31:23;29.28;43.46
69006;SHT31;56061;51.748;19.620;2023-08-21T14:33:50;29.36;43.03
69006;SHT31;56061;51.748;19.620;2023-08-21T14:36:16;29.38;42.88
69006;SHT31;56061;51.748;19.620;2023-08-21T14:38:44;29.41;42.68
69006;SHT31;56061;51.748;19.620;2023-08-21T14:41:10;29.43;42.61
69006;SHT31;56061;51.748;19.620;2023-08-21T14:43:37;29.45;42.59
69006;SHT31;56061;51.748;19.620;2023-08-21T14:46:03;29.52;42.89
69006;SHT31;56061;51.748;19.620;2023-08-21T14:48:30;29.60;43.08
69006;SHT31;56061;51.748;19.620;2023-08-21T14:53:50;29.91;43.19
69006;SHT31;56061;51.748;19.620;2023-08-21T14:56:18;29.99;42.72
69006;SHT31;56061;51.748;19.620;2023-08-21T14:58:48;30.05;43.31
69006;SHT31;56061;51.748;19.620;2023-08-21T15:01:14;30.11;42.63
69006;SHT31;56061;51.748;19.620;2023-08-21T15:03:41;30.13;42.49
69006;SHT31;56061;51.748;19.620;2023-08-21T15:06:09;30.16;42.84
69006;SHT31;56061;51.748;19.620;2023-08-21T15:08:45;30.21;43.26
69006;SHT31;56061;51.748;19.620;2023-08-21T15:11:11;30.20;42.05
69006;SHT31;56061;51.748;19.620;2023-08-21T15:13:39;30.14;42.15
69006;SHT31;56061;51.748;19.620;2023-08-21T15:16:06;30.07;42.04
69006;SHT31;56061;51.748;19.620;2023-08-21T15:18:33;29.97;41.64
69006;SHT31;56061;51.748;19.620;2023-08-21T15:21:07;29.86;41.98
69006;SHT31;56061;51.748;19.620;2023-08-21T15:23:34;29.82;41.71
69006;SHT31;56061;51.748;19.620;2023-08-21T15:26:00;29.82;42.13
69006;SHT31;56061;51.748;19.620;2023-08-21T15:28:27;29.84;42.10
69006;SHT31;56061;51.748;19.620;2023-08-21T15:30:53;29.78;41.96
69006;SHT31;56061;51.748;19.620;2023-08-21T15:35:48;29.82;42.46
69006;SHT31;56061;51.748;19.620;2023-08-21T15:38:15;29.86;42.51
69006;SHT31;56061;51.748;19.620;2023-08-21T15:40:42;29.89;42.41